TimePDT,TemperatureF,Dew PointF,Humidity,Sea Level PressureIn,VisibilityMPH,Wind Direction,Wind SpeedMPH,Gust SpeedMPH,PrecipitationIn,Events,Conditions,WindDirDegrees,DateUTC
12:53 AM,73.9,62.1,66,29.88,10.0,West,3.5,-,N/A,,Clear,260,2013-07-11 07:53:00
1:53 AM,72.0,63.0,73,29.89,10.0,West,3.5,-,N/A,,Clear,280,2013-07-11 08:53:00
2:53 AM,72.0,59.0,64,29.89,10.0,WNW,3.5,-,N/A,,Clear,290,2013-07-11 09:53:00
3:53 AM,71.1,59.0,66,29.88,10.0,Calm,Calm,-,N/A,,Clear,0,2013-07-11 10:53:00
4:53 AM,71.1,59.0,66,29.88,10.0,Calm,Calm,-,N/A,,Clear,0,2013-07-11 11:53:00
5:53 AM,71.1,59.0,66,29.89,10.0,SW,3.5,-,N/A,,Clear,230,2013-07-11 12:53:00
6:53 AM,71.1,59.0,66,29.91,10.0,Calm,Calm,-,N/A,,Mostly Cloudy,0,2013-07-11 13:53:00
7:53 AM,72.0,60.1,66,29.93,10.0,Calm,Calm,-,N/A,,Overcast,0,2013-07-11 14:53:00
8:53 AM,73.0,60.1,64,29.94,10.0,Calm,Calm,-,0.00,,Partly Cloudy,0,2013-07-11 15:53:00
10:53 AM,73.9,61.0,64,29.94,10.0,Calm,Calm,-,0.00,Rain,Light Rain,0,2013-07-11 17:53:00
11:53 AM,75.9,62.1,62,29.94,9.0,East,3.5,-,0.00,,Overcast,100,2013-07-11 18:53:00
12:53 PM,78.1,62.1,58,29.93,10.0,Calm,Calm,-,N/A,,Overcast,0,2013-07-11 19:53:00
1:53 PM,79.0,63.0,58,29.91,10.0,Calm,Calm,-,N/A,,Mostly Cloudy,0,2013-07-11 20:53:00
2:53 PM,81.0,63.0,54,29.88,10.0,Calm,Calm,-,N/A,,Mostly Cloudy,0,2013-07-11 21:53:00
3:53 PM,82.9,63.0,51,29.87,10.0,Calm,Calm,-,N/A,,Overcast,0,2013-07-11 22:53:00
4:53 PM,81.0,63.0,54,29.86,10.0,Variable,6.9,-,N/A,,Mostly Cloudy,0,2013-07-11 23:53:00
5:53 PM,81.0,63.0,54,29.84,10.0,Variable,3.5,-,N/A,,Scattered Clouds,0,2013-07-12 00:53:00
6:53 PM,77.0,64.0,64,29.85,10.0,West,10.4,-,N/A,,Mostly Cloudy,270,2013-07-12 01:53:00
7:53 PM,75.0,64.0,69,29.86,10.0,West,8.1,-,N/A,,Clear,260,2013-07-12 02:53:00
8:53 PM,75.0,63.0,66,29.87,10.0,West,6.9,-,N/A,,Clear,270,2013-07-12 03:53:00
9:53 PM,73.0,63.0,71,29.88,10.0,West,5.8,-,N/A,,Clear,260,2013-07-12 04:53:00
11:53 PM,73.0,63.0,71,29.89,10.0,Calm,Calm,-,N/A,,Clear,0,2013-07-12 06:53:00